Time;durP1;ratioP1;P1;durP2;ratioP2;P2;SDS_P1;SDS_P2;PMS_P1;PMS_P2;Temp;Humidity;BMP_temperature;BMP_pressure;BME280_temperature;BME280_humidity;BME280_pressure;Samples;Min_cycle;Max_cycle;Signal;HPM_P1;HPM_P2
2022/08/31 00:05:57;;;;;;;;;;;14.10;99.90;;;;;;5095711;28;19923;-74
2022/08/31 00:08:23;;;;;;;;;;;14.00;99.90;;;;;;5095718;28;19912;-74
2022/08/31 00:10:48;;;;;;;;;;;14.00;99.90;;;;;;5095253;28;19999;-74
2022/08/31 00:13:15;;;;;;;;;;;14.00;99.90;;;;;;5095686;28;19951;-74
2022/08/31 00:15:41;;;;;;;;;;;13.90;99.90;;;;;;5094830;28;19916;-74
2022/08/31 00:18:06;;;;;;;;;;;13.90;99.90;;;;;;5095638;28;19908;-74
2022/08/31 00:20:32;;;;;;;;;;;13.80;99.90;;;;;;5095611;28;20372;-74
2022/08/31 00:22:58;;;;;;;;;;;13.70;99.90;;;;;;5094917;28;20016;-74
2022/08/31 00:25:24;;;;;;;;;;;13.70;99.90;;;;;;5095606;28;19912;-74
2022/08/31 00:27:49;;;;;;;;;;;13.60;99.90;;;;;;5093371;28;19912;-74
2022/08/31 00:30:15;;;;;;;;;;;13.60;99.90;;;;;;5095238;28;20442;-74
2022/08/31 00:32:41;;;;;;;;;;;13.50;99.90;;;;;;5094950;28;19908;-74
2022/08/31 00:35:07;;;;;;;;;;;13.50;99.90;;;;;;5095109;28;19973;-74
2022/08/31 00:37:32;;;;;;;;;;;13.50;99.90;;;;;;5095426;28;19908;-74
2022/08/31 00:39:58;;;;;;;;;;;13.50;99.90;;;;;;5094954;28;19908;-74
2022/08/31 00:42:24;;;;;;;;;;;13.50;99.90;;;;;;5095350;28;19915;-74
2022/08/31 00:44:49;;;;;;;;;;;13.50;99.90;;;;;;5094517;28;20234;-74
2022/08/31 00:47:15;;;;;;;;;;;13.50;99.90;;;;;;5095198;28;20333;-74
2022/08/31 00:49:42;;;;;;;;;;;13.50;99.90;;;;;;5094675;28;19908;-73
2022/08/31 00:52:13;;;;;;;;;;;13.40;99.90;;;;;;5094392;28;19919;-74
2022/08/31 00:54:45;;;;;;;;;;;13.40;99.90;;;;;;5094879;28;19908;-74
2022/08/31 00:57:11;;;;;;;;;;;13.40;99.90;;;;;;5094623;28;19908;-74
2022/08/31 00:59:37;;;;;;;;;;;13.40;99.90;;;;;;5094575;28;19915;-74
2022/08/31 01:02:03;;;;;;;;;;;13.40;99.90;;;;;;5094645;28;19912;-74
2022/08/31 01:04:29;;;;;;;;;;;13.30;99.90;;;;;;5094547;28;19908;-74
2022/08/31 01:06:55;;;;;;;;;;;13.20;99.90;;;;;;5093995;28;19923;-74
2022/08/31 01:09:21;;;;;;;;;;;13.30;99.90;;;;;;5095284;28;19912;-74
2022/08/31 01:11:47;;;;;;;;;;;13.30;99.90;;;;;;5094264;28;19947;-74
2022/08/31 01:14:12;;;;;;;;;;;13.20;99.90;;;;;;5094928;28;20009;-74
2022/08/31 01:16:41;;;;;;;;;;;13.20;99.90;;;;;;5095028;28;20386;-74
2022/08/31 01:19:10;;;;;;;;;;;13.20;99.90;;;;;;5094533;28;19909;-74
2022/08/31 01:21:47;;;;;;;;;;;13.00;99.90;;;;;;5094880;28;19908;-74
2022/08/31 01:24:14;;;;;;;;;;;13.00;99.90;;;;;;5096508;28;20284;-74
2022/08/31 01:26:40;;;;;;;;;;;13.00;99.90;;;;;;5095592;28;19959;-74
2022/08/31 01:29:06;;;;;;;;;;;13.00;99.90;;;;;;5093946;28;19916;-74
2022/08/31 01:31:49;;;;;;;;;;;12.90;99.90;;;;;;5093092;28;19958;-74
2022/08/31 01:34:15;;;;;;;;;;;12.80;99.90;;;;;;5093744;28;19908;-74
2022/08/31 01:36:42;;;;;;;;;;;12.80;99.90;;;;;;5092635;28;20387;-74
2022/08/31 01:39:09;;;;;;;;;;;12.80;99.90;;;;;;5092392;28;20302;-74
2022/08/31 01:41:40;;;;;;;;;;;12.80;99.90;;;;;;5094011;28;19912;-74
2022/08/31 01:44:07;;;;;;;;;;;12.90;99.90;;;;;;5092307;28;19915;-74
2022/08/31 01:46:32;;;;;;;;;;;13.00;99.90;;;;;;5094244;28;19912;-74
2022/08/31 01:48:58;;;;;;;;;;;13.20;99.90;;;;;;5092671;28;19919;-73
2022/08/31 01:51:24;;;;;;;;;;;13.30;99.90;;;;;;5092310;28;20357;-73
2022/08/31 01:53:50;;;;;;;;;;;13.30;99.90;;;;;;5093350;28;20264;-74
2022/08/31 01:56:18;;;;;;;;;;;13.30;99.90;;;;;;5093526;28;19908;-73
2022/08/31 01:58:43;;;;;;;;;;;13.40;99.90;;;;;;5092256;28;19915;-73
2022/08/31 02:01:09;;;;;;;;;;;13.50;99.90;;;;;;5093298;28;19908;-74
2022/08/31 02:03:34;;;;;;;;;;;13.50;99.90;;;;;;5092989;28;20311;-74
2022/08/31 02:06:10;;;;;;;;;;;13.50;99.90;;;;;;5093036;28;19912;-74
2022/08/31 02:08:36;;;;;;;;;;;13.50;99.90;;;;;;5093585;28;19926;-74
2022/08/31 02:11:03;;;;;;;;;;;13.50;99.90;;;;;;5092621;28;19995;-73
2022/08/31 02:13:28;;;;;;;;;;;13.50;99.90;;;;;;5093656;28;20387;-73
2022/08/31 02:15:54;;;;;;;;;;;13.50;99.90;;;;;;5092696;28;20002;-74
2022/08/31 02:18:20;;;;;;;;;;;13.60;99.90;;;;;;5093176;28;19953;-73
2022/08/31 02:20:45;;;;;;;;;;;13.60;99.90;;;;;;5092985;28;19923;-73
2022/08/31 02:23:11;;;;;;;;;;;13.60;99.90;;;;;;5093330;28;19916;-73
2022/08/31 02:25:36;;;;;;;;;;;13.60;99.90;;;;;;5093132;28;19919;-73
2022/08/31 02:28:02;;;;;;;;;;;13.60;99.90;;;;;;5092769;28;19912;-73
2022/08/31 02:30:27;;;;;;;;;;;13.50;99.90;;;;;;5093290;28;19912;-73
2022/08/31 02:32:53;;;;;;;;;;;13.50;99.90;;;;;;5092662;28;19915;-73
2022/08/31 02:35:19;;;;;;;;;;;13.50;99.90;;;;;;5092863;28;19920;-73
2022/08/31 02:37:45;;;;;;;;;;;13.40;99.90;;;;;;5092957;28;20345;-73
2022/08/31 02:40:10;;;;;;;;;;;13.40;99.90;;;;;;5092864;28;19977;-73
2022/08/31 02:42:36;;;;;;;;;;;13.40;99.90;;;;;;5091755;28;20354;-73
2022/08/31 02:45:03;;;;;;;;;;;13.40;99.90;;;;;;5092518;28;19939;-73
2022/08/31 02:47:30;;;;;;;;;;;13.50;99.90;;;;;;5092577;28;20362;-73
2022/08/31 02:49:56;;;;;;;;;;;13.50;99.90;;;;;;5092236;28;20374;-73
2022/08/31 02:52:21;;;;;;;;;;;13.50;99.90;;;;;;5093252;28;19908;-73
2022/08/31 02:54:47;;;;;;;;;;;13.40;99.90;;;;;;5092555;28;19931;-73
2022/08/31 02:57:12;;;;;;;;;;;13.40;99.90;;;;;;5092599;28;19909;-73
2022/08/31 02:59:38;;;;;;;;;;;13.30;99.90;;;;;;5092921;28;19908;-74
2022/08/31 03:02:03;;;;;;;;;;;13.30;99.90;;;;;;5092128;28;19915;-74
2022/08/31 03:04:29;;;;;;;;;;;13.40;99.90;;;;;;5092919;28;19908;-74
2022/08/31 03:06:56;;;;;;;;;;;13.40;99.90;;;;;;5092278;28;19912;-74
2022/08/31 03:09:21;;;;;;;;;;;13.40;99.90;;;;;;5092361;28;19912;-74
2022/08/31 03:11:47;;;;;;;;;;;13.40;99.90;;;;;;5091550;28;19919;-74
2022/08/31 03:14:12;;;;;;;;;;;13.40;99.90;;;;;;5092632;28;19916;-74
2022/08/31 03:16:39;;;;;;;;;;;13.40;99.90;;;;;;5096666;28;19908;-73
2022/08/31 03:19:05;;;;;;;;;;;13.40;99.90;;;;;;5095874;28;19908;-74
2022/08/31 03:21:30;;;;;;;;;;;13.40;99.90;;;;;;5096624;28;19955;-73
2022/08/31 03:23:56;;;;;;;;;;;13.30;99.90;;;;;;5096228;28;19944;-73
2022/08/31 03:26:22;;;;;;;;;;;13.20;99.90;;;;;;5096604;28;19912;-73
2022/08/31 03:28:47;;;;;;;;;;;13.10;99.90;;;;;;5096674;28;19923;-72
2022/08/31 03:31:13;;;;;;;;;;;13.10;99.90;;;;;;5096124;28;20011;-73
2022/08/31 03:33:38;;;;;;;;;;;13.10;99.90;;;;;;5096530;28;19923;-73
2022/08/31 03:36:04;;;;;;;;;;;13.20;99.90;;;;;;5094123;28;20302;-73
2022/08/31 03:38:30;;;;;;;;;;;13.20;99.90;;;;;;5096173;28;19923;-73
2022/08/31 03:40:56;;;;;;;;;;;13.20;99.90;;;;;;5095773;28;19908;-73
2022/08/31 03:43:21;;;;;;;;;;;13.30;99.90;;;;;;5096305;28;20372;-73
2022/08/31 03:45:48;;;;;;;;;;;13.20;99.90;;;;;;5095919;28;20261;-73
2022/08/31 03:48:14;;;;;;;;;;;13.20;99.90;;;;;;5095697;28;19912;-74
2022/08/31 03:50:40;;;;;;;;;;;13.10;99.90;;;;;;5095985;28;19914;-73
2022/08/31 03:53:07;;;;;;;;;;;13.00;99.90;;;;;;5095629;28;19908;-73
2022/08/31 03:55:34;;;;;;;;;;;12.90;99.90;;;;;;5096084;28;19908;-73
2022/08/31 03:57:59;;;;;;;;;;;13.00;99.90;;;;;;5095383;28;20272;-74
2022/08/31 04:00:25;;;;;;;;;;;13.00;99.90;;;;;;5096161;28;20003;-73
2022/08/31 04:02:52;;;;;;;;;;;13.10;99.90;;;;;;5095937;28;19955;-73
2022/08/31 04:05:18;;;;;;;;;;;13.10;99.90;;;;;;5095476;28;19977;-74
2022/08/31 04:07:44;;;;;;;;;;;13.10;99.90;;;;;;5095775;28;19958;-73
2022/08/31 04:10:10;;;;;;;;;;;13.00;99.90;;;;;;5093486;28;19912;-74
2022/08/31 04:12:36;;;;;;;;;;;13.00;99.90;;;;;;5095748;28;20372;-74
2022/08/31 04:15:02;;;;;;;;;;;13.10;99.90;;;;;;5093737;28;19908;-74
2022/08/31 04:17:27;;;;;;;;;;;13.10;99.90;;;;;;5096079;28;19961;-73
2022/08/31 04:19:53;;;;;;;;;;;13.20;99.90;;;;;;5095519;28;19936;-74
2022/08/31 04:22:19;;;;;;;;;;;13.20;99.90;;;;;;5095275;28;19943;-74
2022/08/31 04:24:44;;;;;;;;;;;13.20;99.90;;;;;;5095498;28;19908;-73
2022/08/31 04:27:10;;;;;;;;;;;13.20;99.90;;;;;;5094086;28;20387;-73
2022/08/31 04:29:35;;;;;;;;;;;13.20;99.90;;;;;;5095337;28;19908;-74
2022/08/31 04:32:01;;;;;;;;;;;13.20;99.90;;;;;;5094748;28;19916;-74
2022/08/31 04:34:26;;;;;;;;;;;13.30;99.90;;;;;;5095111;28;19991;-74
2022/08/31 04:36:52;;;;;;;;;;;13.30;99.90;;;;;;5095422;28;20257;-73
2022/08/31 04:39:18;;;;;;;;;;;13.30;99.90;;;;;;5094693;28;19927;-74
2022/08/31 04:41:43;;;;;;;;;;;13.30;99.90;;;;;;5093850;28;19958;-73
2022/08/31 04:44:10;;;;;;;;;;;13.20;99.90;;;;;;5094404;28;19958;-73
2022/08/31 04:46:36;;;;;;;;;;;13.20;99.90;;;;;;5094657;28;19912;-73
2022/08/31 04:49:02;;;;;;;;;;;13.20;99.90;;;;;;5094753;28;19965;-73
2022/08/31 04:51:35;;;;;;;;;;;13.30;99.90;;;;;;5095228;28;19912;-74
2022/08/31 04:54:01;;;;;;;;;;;13.30;99.90;;;;;;5094190;28;20427;-73
2022/08/31 04:56:30;;;;;;;;;;;13.30;99.90;;;;;;5094977;28;19908;-74
2022/08/31 04:58:57;;;;;;;;;;;13.20;99.90;;;;;;5094722;28;19912;-74
2022/08/31 05:01:24;;;;;;;;;;;13.20;99.90;;;;;;5093477;28;19908;-74
2022/08/31 05:03:52;;;;;;;;;;;13.20;99.90;;;;;;5094618;28;20380;-74
2022/08/31 05:06:21;;;;;;;;;;;13.20;99.90;;;;;;5093835;28;19912;-73
2022/08/31 05:08:47;;;;;;;;;;;13.20;99.90;;;;;;5094368;28;20412;-73
2022/08/31 05:11:14;;;;;;;;;;;13.20;99.90;;;;;;5094035;28;20005;-74
2022/08/31 05:13:40;;;;;;;;;;;13.20;99.90;;;;;;5094423;28;19958;-73
2022/08/31 05:16:06;;;;;;;;;;;13.30;99.90;;;;;;5092849;28;20028;-73
2022/08/31 05:18:32;;;;;;;;;;;13.30;99.90;;;;;;5094351;28;19908;-73
2022/08/31 05:21:07;;;;;;;;;;;13.40;99.90;;;;;;5094252;28;19911;-73
2022/08/31 05:23:32;;;;;;;;;;;13.40;99.90;;;;;;5093186;28;19915;-73
2022/08/31 05:25:59;;;;;;;;;;;13.40;99.90;;;;;;5094001;28;19913;-74
2022/08/31 05:28:24;;;;;;;;;;;13.40;99.90;;;;;;5094064;28;19963;-74
2022/08/31 05:30:50;;;;;;;;;;;13.50;99.90;;;;;;5094293;28;19952;-74
2022/08/31 05:33:15;;;;;;;;;;;13.50;99.90;;;;;;5092399;28;19947;-74
2022/08/31 05:35:42;;;;;;;;;;;13.50;99.90;;;;;;5093933;28;20432;-74
2022/08/31 05:38:08;;;;;;;;;;;13.50;99.90;;;;;;5092880;28;20345;-74
2022/08/31 05:40:33;;;;;;;;;;;13.60;99.90;;;;;;5094118;28;19961;-74
2022/08/31 05:42:59;;;;;;;;;;;13.60;99.90;;;;;;5093576;28;19912;-74
2022/08/31 05:45:24;;;;;;;;;;;13.70;99.90;;;;;;5093532;28;19955;-75
2022/08/31 05:47:50;;;;;;;;;;;13.70;99.90;;;;;;5093902;28;20305;-74
2022/08/31 05:50:17;;;;;;;;;;;13.70;99.90;;;;;;5092965;28;19908;-75
2022/08/31 05:52:43;;;;;;;;;;;13.80;99.90;;;;;;5093760;28;19908;-74
2022/08/31 05:55:10;;;;;;;;;;;13.80;99.90;;;;;;5092968;28;19955;-75
2022/08/31 05:57:37;;;;;;;;;;;13.80;99.90;;;;;;5093757;28;20357;-74
2022/08/31 06:00:03;;;;;;;;;;;13.90;99.90;;;;;;5092970;28;20002;-73
2022/08/31 06:02:29;;;;;;;;;;;13.90;99.90;;;;;;5093513;28;19908;-74
2022/08/31 06:04:55;;;;;;;;;;;14.00;99.90;;;;;;5093039;28;20017;-75
2022/08/31 06:07:20;;;;;;;;;;;14.10;99.90;;;;;;5091324;28;19923;-74
2022/08/31 06:09:46;;;;;;;;;;;14.10;99.90;;;;;;5093618;28;19908;-74
2022/08/31 06:12:14;;;;;;;;;;;14.20;99.90;;;;;;5092864;28;20379;-73
2022/08/31 06:14:40;;;;;;;;;;;14.20;99.90;;;;;;5093293;28;19912;-74
2022/08/31 06:17:06;;;;;;;;;;;14.30;99.90;;;;;;5092657;28;19908;-74
2022/08/31 06:19:31;;;;;;;;;;;14.40;99.90;;;;;;5092933;28;19908;-74
2022/08/31 06:21:57;;;;;;;;;;;14.40;99.90;;;;;;5092726;28;19912;-74
2022/08/31 06:24:23;;;;;;;;;;;14.40;99.90;;;;;;5092359;28;20526;-74
2022/08/31 06:26:54;;;;;;;;;;;14.50;99.90;;;;;;5091794;28;19912;-74
2022/08/31 06:29:20;;;;;;;;;;;14.60;99.90;;;;;;5092444;28;19912;-73
2022/08/31 06:31:46;;;;;;;;;;;14.60;99.90;;;;;;5092959;28;20015;-74
2022/08/31 06:34:12;;;;;;;;;;;14.60;99.90;;;;;;5092453;28;19912;-73
2022/08/31 06:36:38;;;;;;;;;;;14.70;99.90;;;;;;5093049;28;20018;-72
2022/08/31 06:39:04;;;;;;;;;;;14.80;99.90;;;;;;5092716;28;19939;-73
2022/08/31 06:41:31;;;;;;;;;;;14.90;99.90;;;;;;5092628;28;19915;-73
2022/08/31 06:43:58;;;;;;;;;;;15.00;99.90;;;;;;5092954;28;20002;-72
2022/08/31 06:46:23;;;;;;;;;;;15.10;99.90;;;;;;5092125;28;20236;-73
2022/08/31 06:48:52;;;;;;;;;;;15.20;99.90;;;;;;5093271;28;20365;-73
2022/08/31 06:51:17;;;;;;;;;;;15.30;99.90;;;;;;5080018;28;19912;-73
2022/08/31 06:53:43;;;;;;;;;;;15.40;99.90;;;;;;5097530;28;20257;-73
2022/08/31 06:56:11;;;;;;;;;;;15.50;99.90;;;;;;5098158;28;19999;-73
2022/08/31 06:58:37;;;;;;;;;;;15.60;99.90;;;;;;5098937;28;19914;-73
2022/08/31 07:01:09;;;;;;;;;;;15.70;99.90;;;;;;5099606;28;19908;-73
2022/08/31 07:03:36;;;;;;;;;;;15.70;99.90;;;;;;5099401;28;19955;-73
2022/08/31 07:06:07;;;;;;;;;;;15.70;99.90;;;;;;5099562;28;20008;-73
2022/08/31 07:08:32;;;;;;;;;;;15.80;99.90;;;;;;5099450;28;19919;-72
2022/08/31 07:10:58;;;;;;;;;;;15.90;99.90;;;;;;5099192;28;19908;-73
2022/08/31 07:13:24;;;;;;;;;;;15.90;99.90;;;;;;5098887;28;19930;-73
2022/08/31 07:15:49;;;;;;;;;;;16.00;99.90;;;;;;5099007;28;20242;-73
2022/08/31 07:18:15;;;;;;;;;;;16.00;99.90;;;;;;5098630;28;19948;-74
2022/08/31 07:20:40;;;;;;;;;;;16.10;99.90;;;;;;5098934;28;19915;-73
2022/08/31 07:23:06;;;;;;;;;;;16.20;99.90;;;;;;5098787;28;19931;-74
2022/08/31 07:25:32;;;;;;;;;;;16.20;99.90;;;;;;5098465;28;19973;-74
2022/08/31 07:27:58;;;;;;;;;;;16.30;99.90;;;;;;5099094;28;19916;-73
2022/08/31 07:30:24;;;;;;;;;;;16.30;99.90;;;;;;5097328;28;19908;-74
2022/08/31 07:32:51;;;;;;;;;;;16.40;99.90;;;;;;5099160;28;19915;-73
2022/08/31 07:35:17;;;;;;;;;;;16.30;99.90;;;;;;5098111;28;19927;-73
2022/08/31 07:43:13;;;;;;;;;;;16.50;99.90;;;;;;5076892;28;19908;-74
2022/08/31 07:45:39;;;;;;;;;;;16.50;99.90;;;;;;5098827;28;20073;-74
2022/08/31 07:48:04;;;;;;;;;;;16.50;99.90;;;;;;5098022;28;20075;-73
2022/08/31 07:50:30;;;;;;;;;;;16.60;99.90;;;;;;5098522;28;20371;-73
2022/08/31 07:52:57;;;;;;;;;;;16.80;99.90;;;;;;5099253;28;19908;-73
2022/08/31 07:55:24;;;;;;;;;;;16.70;99.90;;;;;;5098347;28;19995;-74
2022/08/31 07:57:52;;;;;;;;;;;16.70;99.90;;;;;;5099065;28;20006;-74
2022/08/31 08:00:28;;;;;;;;;;;16.80;99.90;;;;;;5098183;28;20003;-74
2022/08/31 08:02:53;;;;;;;;;;;16.90;99.90;;;;;;5095156;28;19958;-74
2022/08/31 08:05:23;;;;;;;;;;;16.60;99.90;;;;;;5094860;28;19948;-74
2022/08/31 08:07:50;;;;;;;;;;;16.50;99.90;;;;;;5095540;28;20014;-73
2022/08/31 08:10:16;;;;;;;;;;;16.60;99.90;;;;;;5094780;28;19908;-74
2022/08/31 08:12:45;;;;;;;;;;;16.70;99.90;;;;;;5095478;28;19915;-74
2022/08/31 08:15:11;;;;;;;;;;;16.60;99.90;;;;;;5094959;28;19908;-74
2022/08/31 08:17:37;;;;;;;;;;;16.60;99.90;;;;;;5095666;28;19915;-74
2022/08/31 08:20:03;;;;;;;;;;;16.60;99.90;;;;;;5095877;28;19908;-74
2022/08/31 08:22:29;;;;;;;;;;;16.80;99.90;;;;;;5094770;28;20006;-74
2022/08/31 08:24:54;;;;;;;;;;;16.80;99.90;;;;;;5095013;28;20018;-74
2022/08/31 08:27:20;;;;;;;;;;;16.90;99.90;;;;;;5094288;28;19923;-74
2022/08/31 08:29:45;;;;;;;;;;;17.10;99.90;;;;;;5095718;28;19913;-74
2022/08/31 08:32:11;;;;;;;;;;;17.00;99.90;;;;;;5095067;28;19961;-74
2022/08/31 08:34:42;;;;;;;;;;;17.20;99.90;;;;;;5094357;28;19943;-74
2022/08/31 08:37:09;;;;;;;;;;;17.20;99.90;;;;;;5095418;28;20372;-74
2022/08/31 08:39:34;;;;;;;;;;;17.20;99.90;;;;;;5094421;28;19908;-74
2022/08/31 08:42:01;;;;;;;;;;;17.20;99.90;;;;;;5093725;28;20272;-74
2022/08/31 08:44:29;;;;;;;;;;;17.30;99.90;;;;;;5094837;28;19911;-74
2022/08/31 08:46:57;;;;;;;;;;;17.40;99.90;;;;;;5094457;28;19921;-74
2022/08/31 08:49:22;;;;;;;;;;;17.40;99.90;;;;;;5094344;28;19912;-74
2022/08/31 08:51:50;;;;;;;;;;;17.40;99.90;;;;;;5094908;28;20246;-74
2022/08/31 08:54:20;;;;;;;;;;;17.50;99.90;;;;;;5094250;28;19908;-74
2022/08/31 08:56:48;;;;;;;;;;;17.70;99.90;;;;;;5094501;28;20361;-74
2022/08/31 08:59:15;;;;;;;;;;;17.80;99.90;;;;;;5094235;28;19966;-73
2022/08/31 09:01:44;;;;;;;;;;;17.80;99.90;;;;;;5094866;28;19915;-74
2022/08/31 09:04:48;;;;;;;;;;;17.70;99.90;;;;;;5094298;28;20384;-74
2022/08/31 09:07:19;;;;;;;;;;;17.60;99.90;;;;;;5071567;28;19917;-74
2022/08/31 09:09:52;;;;;;;;;;;17.60;99.90;;;;;;5071942;28;19949;-72
2022/08/31 09:12:25;;;;;;;;;;;17.70;99.90;;;;;;5071113;28;19913;-73
2022/08/31 09:14:50;;;;;;;;;;;17.60;99.90;;;;;;5072179;28;19920;-73
2022/08/31 09:17:29;;;;;;;;;;;17.80;99.90;;;;;;5071256;28;20277;-73
2022/08/31 09:19:59;;;;;;;;;;;17.60;99.90;;;;;;5055010;28;19908;-73
2022/08/31 09:22:28;;;;;;;;;;;17.30;99.90;;;;;;5071071;28;19908;-72
2022/08/31 09:24:58;;;;;;;;;;;17.40;99.90;;;;;;5071469;28;19993;-73
2022/08/31 09:27:39;;;;;;;;;;;17.40;99.90;;;;;;5070938;28;19912;-72
2022/08/31 09:30:05;;;;;;;;;;;17.50;99.90;;;;;;5071488;28;19909;-72
2022/08/31 09:32:33;;;;;;;;;;;17.40;99.90;;;;;;5070679;28;19915;-73
2022/08/31 09:35:03;;;;;;;;;;;17.50;99.90;;;;;;5071245;28;19965;-73
2022/08/31 09:37:36;;;;;;;;;;;17.20;99.90;;;;;;5077620;28;20016;-73
2022/08/31 09:40:22;;;;;;;;;;;17.40;99.90;;;;;;5093840;28;19908;-72
2022/08/31 09:43:03;;;;;;;;;;;17.60;99.90;;;;;;5093881;28;20357;-73
2022/08/31 09:45:34;;;;;;;;;;;17.60;99.90;;;;;;5093214;28;19919;-73
2022/08/31 09:48:00;;;;;;;;;;;17.50;99.90;;;;;;5093775;28;19916;-73
2022/08/31 09:50:34;;;;;;;;;;;17.20;99.90;;;;;;5093573;28;20041;-72
2022/08/31 09:56:15;;;;;;;;;;;17.10;99.90;;;;;;5093726;28;19958;-73
2022/08/31 09:58:47;;;;;;;;;;;17.10;99.90;;;;;;5093385;28;20363;-73
2022/08/31 10:01:24;;;;;;;;;;;17.20;99.90;;;;;;5093488;28;19908;-73
2022/08/31 10:04:06;;;;;;;;;;;17.20;99.90;;;;;;5093852;28;19958;-73
2022/08/31 10:06:42;;;;;;;;;;;17.20;99.90;;;;;;5092693;28;19912;-73
2022/08/31 10:09:16;;;;;;;;;;;17.30;99.90;;;;;;5093544;28;19920;-73
2022/08/31 10:11:46;;;;;;;;;;;17.30;99.90;;;;;;5093112;28;20427;-73
2022/08/31 10:14:21;;;;;;;;;;;17.10;99.90;;;;;;5093376;28;19908;-74
2022/08/31 10:17:01;;;;;;;;;;;17.10;99.90;;;;;;5091740;28;19908;-73
2022/08/31 10:19:35;;;;;;;;;;;17.20;99.90;;;;;;5092817;28;19914;-74
2022/08/31 10:22:24;;;;;;;;;;;17.20;99.90;;;;;;5093367;28;19917;-74
2022/08/31 10:25:03;;;;;;;;;;;17.30;99.90;;;;;;5092689;28;19908;-74
2022/08/31 10:27:37;;;;;;;;;;;17.40;99.90;;;;;;5092375;28;19916;-74
2022/08/31 10:30:08;;;;;;;;;;;17.50;99.90;;;;;;5093079;28;19908;-73
2022/08/31 10:32:37;;;;;;;;;;;17.60;99.90;;;;;;5092588;28;19962;-74
2022/08/31 10:35:08;;;;;;;;;;;17.60;99.90;;;;;;5092813;28;19970;-73
2022/08/31 10:37:57;;;;;;;;;;;17.50;99.90;;;;;;5092398;28;19912;-73
2022/08/31 10:40:33;;;;;;;;;;;17.50;99.90;;;;;;5092653;28;20345;-73
2022/08/31 10:43:08;;;;;;;;;;;17.50;99.90;;;;;;5092835;28;19908;-73
2022/08/31 10:45:37;;;;;;;;;;;17.50;99.90;;;;;;5092718;28;19919;-73
2022/08/31 10:48:03;;;;;;;;;;;17.50;99.90;;;;;;5093024;28;20418;-73
2022/08/31 10:50:37;;;;;;;;;;;17.50;99.90;;;;;;5092332;28;20380;-73
2022/08/31 10:53:25;;;;;;;;;;;17.60;99.90;;;;;;5092699;28;19908;-74
2022/08/31 10:55:57;;;;;;;;;;;17.50;99.90;;;;;;5092751;28;19908;-74
2022/08/31 10:58:31;;;;;;;;;;;17.40;99.90;;;;;;5092229;28;20365;-74
2022/08/31 11:01:05;;;;;;;;;;;17.40;99.90;;;;;;5091822;28;20003;-74
2022/08/31 11:03:45;;;;;;;;;;;17.50;99.90;;;;;;5092097;28;19908;-74
2022/08/31 11:06:40;;;;;;;;;;;17.50;99.90;;;;;;5091479;28;19916;-74
2022/08/31 11:09:14;;;;;;;;;;;17.50;99.90;;;;;;5087866;28;19912;-74
2022/08/31 11:11:39;;;;;;;;;;;17.40;99.90;;;;;;5092212;28;20357;-74
2022/08/31 11:14:13;;;;;;;;;;;17.40;99.90;;;;;;5092451;28;19926;-73
2022/08/31 11:16:39;;;;;;;;;;;17.40;99.90;;;;;;5091880;28;19946;-73
2022/08/31 11:19:26;;;;;;;;;;;17.40;99.90;;;;;;5092625;28;19959;-74
2022/08/31 11:21:52;;;;;;;;;;;17.40;99.90;;;;;;5092410;28;20254;-73
2022/08/31 11:24:21;;;;;;;;;;;17.50;99.90;;;;;;5092607;28;19919;-74
2022/08/31 11:27:04;;;;;;;;;;;17.60;99.90;;;;;;5091935;28;19919;-74
2022/08/31 11:29:40;;;;;;;;;;;17.70;99.90;;;;;;5092154;28;19958;-74
2022/08/31 11:32:09;;;;;;;;;;;17.80;99.90;;;;;;5092489;28;20319;-74
2022/08/31 11:34:46;;;;;;;;;;;17.80;99.90;;;;;;5091645;28;20369;-74
2022/08/31 11:37:12;;;;;;;;;;;17.80;99.90;;;;;;5094520;28;20341;-74
2022/08/31 11:39:43;;;;;;;;;;;17.90;99.90;;;;;;5095498;28;19919;-74
2022/08/31 11:42:13;;;;;;;;;;;18.00;99.90;;;;;;5096424;28;19912;-74
2022/08/31 11:44:40;;;;;;;;;;;17.90;99.90;;;;;;5094422;28;20335;-74
2022/08/31 11:47:08;;;;;;;;;;;17.90;99.90;;;;;;5096015;28;19919;-74
2022/08/31 11:49:35;;;;;;;;;;;17.90;99.90;;;;;;5095910;28;19912;-74
2022/08/31 11:52:08;;;;;;;;;;;18.00;99.90;;;;;;5095945;28;19955;-74
2022/08/31 11:54:40;;;;;;;;;;;18.10;99.90;;;;;;5095431;28;19908;-74
2022/08/31 11:57:14;;;;;;;;;;;18.20;99.90;;;;;;5095905;28;20007;-74
2022/08/31 11:59:44;;;;;;;;;;;18.40;99.90;;;;;;5094000;28;19959;-72
2022/08/31 12:02:20;;;;;;;;;;;18.50;99.90;;;;;;5096188;28;20326;-73
2022/08/31 12:04:46;;;;;;;;;;;18.20;99.90;;;;;;5095220;28;19908;-73
2022/08/31 12:07:17;;;;;;;;;;;18.10;99.90;;;;;;5095347;28;19963;-73
2022/08/31 12:09:45;;;;;;;;;;;18.10;99.90;;;;;;5095063;28;19912;-72
2022/08/31 12:12:14;;;;;;;;;;;18.00;99.90;;;;;;5095493;28;20383;-74
2022/08/31 12:14:46;;;;;;;;;;;18.20;99.90;;;;;;5094854;28;20357;-73
2022/08/31 12:17:20;;;;;;;;;;;18.30;99.90;;;;;;5095606;28;19908;-74
2022/08/31 12:20:12;;;;;;;;;;;18.30;99.90;;;;;;5094811;28;19922;-74
2022/08/31 12:25:21;;;;;;;;;;;18.50;99.90;;;;;;5095259;28;20387;-74
2022/08/31 12:27:59;;;;;;;;;;;18.50;99.90;;;;;;5094757;28;19965;-74
2022/08/31 12:30:26;;;;;;;;;;;18.30;99.90;;;;;;5095501;28;20349;-74
2022/08/31 12:33:08;;;;;;;;;;;18.40;99.90;;;;;;5095073;28;20003;-74
2022/08/31 12:35:34;;;;;;;;;;;18.20;99.90;;;;;;5094719;28;19921;-74
2022/08/31 12:38:09;;;;;;;;;;;18.10;99.90;;;;;;5094789;28;20308;-74
2022/08/31 12:40:34;;;;;;;;;;;18.10;99.90;;;;;;5094714;28;19908;-74
2022/08/31 12:43:03;;;;;;;;;;;18.10;99.90;;;;;;5095430;28;19939;-74
2022/08/31 12:45:45;;;;;;;;;;;18.00;99.90;;;;;;5094870;28;20372;-73
2022/08/31 12:48:30;;;;;;;;;;;18.00;99.90;;;;;;5094722;28;20365;-74
2022/08/31 12:51:01;;;;;;;;;;;18.00;99.90;;;;;;5094820;28;19908;-73
2022/08/31 12:53:39;;;;;;;;;;;18.00;99.90;;;;;;5095074;28;19915;-73
2022/08/31 12:56:10;;;;;;;;;;;17.80;99.90;;;;;;5095671;28;19915;-72
2022/08/31 12:58:42;;;;;;;;;;;17.80;99.90;;;;;;5093453;28;20395;-74
2022/08/31 13:01:10;;;;;;;;;;;17.90;99.90;;;;;;5094867;28;19912;-74
2022/08/31 13:03:38;;;;;;;;;;;18.20;99.90;;;;;;5094378;28;19912;-74
2022/08/31 13:06:07;;;;;;;;;;;18.40;99.90;;;;;;5094616;28;19919;-73
2022/08/31 13:08:38;;;;;;;;;;;18.30;99.90;;;;;;5092868;28;19930;-74
2022/08/31 13:11:21;;;;;;;;;;;18.40;99.90;;;;;;5094673;28;19909;-74
2022/08/31 13:13:46;;;;;;;;;;;18.50;99.90;;;;;;5094301;28;19915;-74
2022/08/31 13:16:12;;;;;;;;;;;18.60;99.90;;;;;;5094422;28;19908;-74
2022/08/31 13:18:38;;;;;;;;;;;18.60;99.90;;;;;;5093960;28;19958;-74
2022/08/31 13:21:06;;;;;;;;;;;18.60;99.90;;;;;;5094499;28;20353;-74
2022/08/31 13:23:33;;;;;;;;;;;18.70;99.90;;;;;;5093951;28;19908;-74
2022/08/31 13:26:00;;;;;;;;;;;18.80;99.90;;;;;;5094043;28;19919;-74
2022/08/31 13:28:29;;;;;;;;;;;18.90;99.90;;;;;;5093944;28;20417;-74
2022/08/31 13:31:03;;;;;;;;;;;19.00;99.90;;;;;;5093631;28;19944;-74
2022/08/31 13:33:30;;;;;;;;;;;18.90;99.90;;;;;;5093815;28;19919;-74
2022/08/31 13:36:08;;;;;;;;;;;18.60;99.90;;;;;;5093384;28;20277;-74
2022/08/31 13:38:41;;;;;;;;;;;18.50;99.90;;;;;;5093635;28;19994;-74
2022/08/31 13:41:15;;;;;;;;;;;18.30;99.90;;;;;;5094028;28;19968;-74
2022/08/31 13:43:45;;;;;;;;;;;18.30;99.90;;;;;;5093126;28;20300;-74
2022/08/31 13:46:11;;;;;;;;;;;18.40;99.90;;;;;;5093649;28;19912;-74
2022/08/31 13:48:37;;;;;;;;;;;18.50;99.90;;;;;;5093083;28;20322;-74
2022/08/31 13:51:06;;;;;;;;;;;18.50;99.90;;;;;;5093518;28;19908;-74
2022/08/31 13:53:39;;;;;;;;;;;18.40;99.90;;;;;;5093693;28;20393;-74
2022/08/31 13:56:53;;;;;;;;;;;18.40;99.90;;;;;;5093780;28;20504;-74
2022/08/31 13:59:18;;;;;;;;;;;18.40;99.90;;;;;;5092487;28;20408;-74
2022/08/31 14:01:48;;;;;;;;;;;18.40;99.90;;;;;;5093074;28;19918;-74
2022/08/31 14:04:47;;;;;;;;;;;18.50;99.90;;;;;;5093654;28;19909;-74
2022/08/31 14:07:19;;;;;;;;;;;18.60;99.90;;;;;;5093227;28;19918;-73
2022/08/31 14:09:46;;;;;;;;;;;18.80;99.90;;;;;;5092782;28;19959;-74
2022/08/31 14:12:44;;;;;;;;;;;18.90;99.90;;;;;;5093142;28;19909;-74
2022/08/31 14:15:13;;;;;;;;;;;19.20;99.90;;;;;;5080519;28;19946;-74
2022/08/31 14:17:40;;;;;;;;;;;19.30;99.90;;;;;;5092541;28;20289;-74
2022/08/31 14:20:24;;;;;;;;;;;19.30;99.90;;;;;;5093205;28;19908;-74
2022/08/31 14:22:50;;;;;;;;;;;19.30;99.90;;;;;;5092672;28;19961;-73
2022/08/31 14:25:18;;;;;;;;;;;19.30;99.90;;;;;;5093204;28;19912;-74
2022/08/31 14:27:44;;;;;;;;;;;19.30;99.90;;;;;;5091039;28;20284;-74
2022/08/31 14:30:10;;;;;;;;;;;19.40;99.90;;;;;;5092369;28;19909;-74
2022/08/31 14:32:35;;;;;;;;;;;19.30;99.90;;;;;;5092360;28;19914;-72
2022/08/31 14:35:05;;;;;;;;;;;19.40;99.90;;;;;;5092250;28;19908;-73
2022/08/31 14:37:31;;;;;;;;;;;19.50;99.90;;;;;;5092589;28;19919;-73
2022/08/31 14:40:00;;;;;;;;;;;19.60;99.90;;;;;;5090855;28;20339;-73
2022/08/31 14:42:33;;;;;;;;;;;19.50;99.90;;;;;;5092528;28;19915;-73